Time;durP1;ratioP1;P1;durP2;ratioP2;P2;SDS_P1;SDS_P2;PMS_P1;PMS_P2;Temp;Humidity;BMP_temperature;BMP_pressure;BME280_temperature;BME280_humidity;BME280_pressure;Samples;Min_cycle;Max_cycle;Signal;HPM_P1;HPM_P2
2022/01/11 00:00:25;;;;;;;91.83;52.07;;;-0.20;99.90;;;;;;5063135;28;20211;-71
2022/01/11 00:02:53;;;;;;;86.40;52.27;;;-0.20;99.90;;;;;;5056112;28;20520;-71
2022/01/11 00:07:46;;;;;;;89.43;53.23;;;-0.40;99.90;;;;;;5064429;28;20199;-71
2022/01/11 00:10:20;;;;;;;94.57;55.43;;;-0.50;99.90;;;;;;5056221;28;20240;-71
2022/01/11 00:12:48;;;;;;;93.83;55.50;;;-0.50;99.90;;;;;;5060351;28;20345;-71
2022/01/11 00:15:13;;;;;;;96.13;55.60;;;-0.60;99.90;;;;;;5055789;28;20205;-71
2022/01/11 00:17:39;;;;;;;98.27;56.30;;;-0.70;99.90;;;;;;5058892;28;20227;-72
2022/01/11 00:20:06;;;;;;;91.77;54.80;;;-0.70;99.90;;;;;;5056786;28;20609;-71
2022/01/11 00:22:35;;;;;;;87.47;52.73;;;-0.60;99.90;;;;;;5060849;28;20203;-71
2022/01/11 00:25:01;;;;;;;103.20;59.30;;;-0.60;99.90;;;;;;5057173;28;20236;-71
2022/01/11 00:27:26;;;;;;;102.90;58.33;;;-0.60;99.90;;;;;;5058684;28;20678;-70
2022/01/11 00:29:55;;;;;;;100.23;56.40;;;-0.70;99.90;;;;;;5053326;28;20268;-70
2022/01/11 00:32:30;;;;;;;98.23;56.33;;;-0.70;99.90;;;;;;5054198;28;20178;-70
2022/01/11 00:34:56;;;;;;;102.63;56.93;;;-0.80;99.90;;;;;;5052953;28;20241;-70
2022/01/11 00:37:22;;;;;;;95.07;56.57;;;-0.80;99.90;;;;;;5054754;28;20183;-70
2022/01/11 00:39:52;;;;;;;94.97;55.20;;;-0.90;99.90;;;;;;5051679;28;20210;-71
2022/01/11 00:42:19;;;;;;;98.07;56.17;;;-0.90;99.90;;;;;;5055778;28;20341;-69
2022/01/11 00:44:45;;;;;;;95.30;55.13;;;-0.80;99.90;;;;;;5053230;28;20210;-69
2022/01/11 00:47:11;;;;;;;89.40;52.93;;;-0.90;99.90;;;;;;5055909;28;20195;-72
2022/01/11 00:49:39;;;;;;;101.17;56.13;;;-0.90;99.90;;;;;;5052691;28;20211;-72
2022/01/11 00:52:05;;;;;;;104.37;55.80;;;-0.90;99.90;;;;;;5057084;28;20181;-70
2022/01/11 00:54:31;;;;;;;104.70;61.00;;;-0.90;99.90;;;;;;5051343;28;20679;-71
2022/01/11 00:56:57;;;;;;;98.80;56.90;;;-0.90;99.90;;;;;;5054111;28;20216;-70
2022/01/11 00:59:22;;;;;;;106.37;57.10;;;-0.90;99.90;;;;;;5052464;28;20204;-70
2022/01/11 01:01:48;;;;;;;96.97;55.57;;;-0.90;99.90;;;;;;5054366;28;20198;-71
2022/01/11 01:04:13;;;;;;;96.63;55.77;;;-0.90;99.90;;;;;;5052595;28;20218;-71
2022/01/11 01:06:39;;;;;;;110.30;57.60;;;-0.90;99.90;;;;;;5052749;28;20206;-70
2022/01/11 01:09:05;;;;;;;108.07;59.13;;;-1.00;99.90;;;;;;5052966;28;20209;-71
2022/01/11 01:11:31;;;;;;;100.23;56.33;;;-1.10;99.90;;;;;;5054385;28;20192;-70
2022/01/11 01:13:57;;;;;;;107.80;59.73;;;-1.10;99.90;;;;;;5052876;28;20205;-70
2022/01/11 01:16:23;;;;;;;116.23;64.13;;;-1.20;99.90;;;;;;5053631;28;20724;-70
2022/01/11 01:18:49;;;;;;;111.63;61.70;;;-1.30;99.90;;;;;;5047892;28;20236;-70
2022/01/11 01:21:15;;;;;;;109.20;60.43;;;-1.40;99.90;;;;;;5050982;28;20799;-69
2022/01/11 01:23:40;;;;;;;114.13;61.40;;;-1.40;99.90;;;;;;5053323;28;20296;-70
2022/01/11 01:26:06;;;;;;;109.27;55.73;;;-1.40;99.90;;;;;;5049951;28;20213;-70
2022/01/11 01:28:32;;;;;;;119.83;65.03;;;-1.50;99.90;;;;;;5053757;28;20189;-70
2022/01/11 01:31:01;;;;;;;112.03;60.07;;;-1.50;99.90;;;;;;5054462;28;20196;-71
2022/01/11 01:33:32;;;;;;;105.07;58.83;;;-1.60;99.90;;;;;;5053451;28;20261;-70
2022/01/11 01:36:07;;;;;;;118.73;63.97;;;-1.60;99.90;;;;;;5050810;28;20575;-71
2022/01/11 01:38:33;;;;;;;109.80;61.63;;;-1.40;99.90;;;;;;5052219;28;20190;-71
2022/01/11 01:41:09;;;;;;;119.30;63.57;;;-1.30;99.90;;;;;;5050241;28;20201;-70
2022/01/11 01:43:34;;;;;;;108.80;59.83;;;-1.30;99.90;;;;;;5051897;28;20190;-70
2022/01/11 01:46:01;;;;;;;108.20;59.87;;;-1.30;99.90;;;;;;5049782;28;20195;-70
2022/01/11 01:48:28;;;;;;;111.10;61.73;;;-1.20;99.90;;;;;;5052089;28;20354;-69
2022/01/11 01:50:54;;;;;;;118.90;63.97;;;-1.30;99.90;;;;;;5052035;28;20270;-70
2022/01/11 01:53:20;;;;;;;110.03;60.33;;;-1.30;99.90;;;;;;5052044;28;20998;-70
2022/01/11 01:55:47;;;;;;;114.50;61.27;;;-1.30;99.90;;;;;;5050869;28;20276;-70
2022/01/11 01:58:14;;;;;;;120.73;66.20;;;-1.30;99.90;;;;;;5051407;28;20200;-71
2022/01/11 02:00:44;;;;;;;116.00;59.57;;;-1.30;99.90;;;;;;5053039;28;20191;-71
2022/01/11 02:03:13;;;;;;;107.17;56.73;;;-1.30;99.90;;;;;;5053904;28;20177;-69
2022/01/11 02:05:40;;;;;;;113.13;60.43;;;-1.30;99.90;;;;;;5053258;28;20557;-70
2022/01/11 02:08:07;;;;;;;109.40;58.87;;;-1.40;99.90;;;;;;5052114;28;20555;-71
2022/01/11 02:10:34;;;;;;;119.63;63.23;;;-1.50;99.90;;;;;;5055372;28;20212;-71
2022/01/11 02:13:00;;;;;;;116.87;62.63;;;-1.50;99.90;;;;;;5055751;28;20256;-69
2022/01/11 02:15:26;;;;;;;111.60;59.60;;;-1.40;99.90;;;;;;5057276;28;20251;-70
2022/01/11 02:17:52;;;;;;;118.07;61.47;;;-1.40;99.90;;;;;;5054370;28;20897;-69
2022/01/11 02:20:18;;;;;;;111.47;58.27;;;-1.40;99.90;;;;;;5057264;28;20290;-70
2022/01/11 02:22:43;;;;;;;111.07;57.27;;;-1.40;99.90;;;;;;5055747;28;20346;-69
2022/01/11 02:25:09;;;;;;;108.33;54.37;;;-1.40;99.90;;;;;;5059345;28;20215;-70
2022/01/11 02:27:35;;;;;;;114.20;57.77;;;-1.60;99.90;;;;;;5052683;28;20191;-70
2022/01/11 02:30:00;;;;;;;108.13;54.23;;;-1.60;99.90;;;;;;5056969;28;20204;-70
2022/01/11 02:32:26;;;;;;;121.50;60.60;;;-1.60;99.90;;;;;;5054763;28;20201;-70
2022/01/11 02:34:51;;;;;;;117.60;58.13;;;-1.60;99.90;;;;;;5056028;28;20208;-72
2022/01/11 02:37:17;;;;;;;110.23;55.60;;;-1.70;99.90;;;;;;5055858;28;20208;-69
2022/01/11 02:39:46;;;;;;;111.83;56.37;;;-1.60;99.90;;;;;;5057218;28;20205;-71
2022/01/11 02:42:12;;;;;;;121.47;58.03;;;-1.60;99.90;;;;;;5054544;28;20205;-71
2022/01/11 02:44:38;;;;;;;108.67;55.23;;;-1.70;99.90;;;;;;5056621;28;20199;-70
2022/01/11 02:47:04;;;;;;;120.03;55.40;;;-1.60;99.90;;;;;;5050789;28;20700;-68
2022/01/11 02:49:29;;;;;;;108.37;55.87;;;-1.50;99.90;;;;;;5067290;28;20846;-70
2022/01/11 02:51:55;;;;;;;117.87;57.77;;;-1.50;99.90;;;;;;5055673;28;20207;-71
2022/01/11 02:54:22;;;;;;;111.53;58.20;;;-1.40;99.90;;;;;;5057447;28;20209;-71
2022/01/11 02:56:47;;;;;;;104.60;52.97;;;-1.40;99.90;;;;;;5059192;28;20212;-72
2022/01/11 02:59:13;;;;;;;104.70;51.57;;;-1.30;99.90;;;;;;5075368;28;20198;-70
2022/01/11 03:01:38;;;;;;;96.60;52.27;;;-1.40;99.90;;;;;;5076172;28;20230;-70
2022/01/11 03:04:04;;;;;;;108.30;51.87;;;-1.40;99.90;;;;;;5076453;28;20201;-70
2022/01/11 03:06:30;;;;;;;104.13;51.63;;;-1.50;99.90;;;;;;5075491;28;20217;-68
2022/01/11 03:08:55;;;;;;;106.47;50.30;;;-1.50;99.90;;;;;;5063719;28;20217;-68
2022/01/11 03:11:21;;;;;;;115.23;52.97;;;-1.50;99.90;;;;;;5050439;28;20542;-69
2022/01/11 03:13:47;;;;;;;110.37;54.50;;;-1.50;99.90;;;;;;5063569;28;20188;-69
2022/01/11 03:16:16;;;;;;;110.30;52.67;;;-1.50;99.90;;;;;;5062677;28;20295;-70
2022/01/11 03:18:42;;;;;;;111.23;52.67;;;-1.60;99.90;;;;;;5063151;28;20171;-69
2022/01/11 03:21:08;;;;;;;116.80;55.70;;;-1.70;99.90;;;;;;5064000;28;20669;-70
2022/01/11 03:23:33;;;;;;;117.30;51.63;;;-1.70;99.90;;;;;;5063123;28;20203;-69
2022/01/11 03:26:03;;;;;;;115.13;50.77;;;-1.70;99.90;;;;;;5057224;28;20818;-70
2022/01/11 03:28:29;;;;;;;124.30;52.63;;;-1.70;99.90;;;;;;5060697;28;20195;-71
2022/01/11 03:30:55;;;;;;;115.60;52.20;;;-1.60;99.90;;;;;;5057391;28;20682;-62
2022/01/11 03:33:20;;;;;;;122.97;54.03;;;-1.50;99.90;;;;;;5051769;28;20212;-62
2022/01/11 03:35:47;;;;;;;134.37;55.83;;;-1.50;99.90;;;;;;5055221;28;20206;-63
2022/01/11 03:38:13;;;;;;;116.00;52.97;;;-1.50;99.90;;;;;;5057286;28;20304;-62
2022/01/11 03:40:40;;;;;;;114.13;53.00;;;-1.50;99.90;;;;;;5055917;28;20965;-62
2022/01/11 03:43:06;;;;;;;125.17;49.83;;;-1.50;99.90;;;;;;5054731;28;20211;-62
2022/01/11 03:45:32;;;;;;;106.10;51.80;;;-1.40;99.90;;;;;;5055675;28;20196;-64
2022/01/11 03:48:00;;;;;;;102.53;46.80;;;-1.40;99.90;;;;;;5049835;28;20200;-65
2022/01/11 03:50:26;;;;;;;104.43;48.37;;;-1.40;99.90;;;;;;5065183;28;20205;-65
2022/01/11 03:52:59;;;;;;;102.07;47.33;;;-1.30;99.90;;;;;;5053848;28;20217;-65
2022/01/11 03:58:09;;;;;;;99.50;45.10;;;-1.30;99.90;;;;;;5052616;28;20230;-64
2022/01/11 04:00:35;;;;;;;101.00;42.73;;;-1.20;99.90;;;;;;5063434;28;20271;-63
2022/01/11 04:03:00;;;;;;;95.90;44.27;;;-1.30;99.90;;;;;;5051952;28;20818;-64
2022/01/11 04:05:26;;;;;;;99.13;44.40;;;-1.40;99.90;;;;;;5064532;28;20200;-64
2022/01/11 04:07:51;;;;;;;102.73;45.70;;;-1.40;99.90;;;;;;5053958;28;20621;-62
2022/01/11 04:10:17;;;;;;;95.47;41.63;;;-1.30;99.90;;;;;;5065144;28;20287;-63
2022/01/11 04:12:42;;;;;;;92.80;45.20;;;-1.30;99.90;;;;;;5059899;28;20188;-61
2022/01/11 04:15:08;;;;;;;97.83;42.33;;;-1.40;99.90;;;;;;5064985;28;20677;-62
2022/01/11 04:17:34;;;;;;;98.67;42.50;;;-1.50;99.90;;;;;;5060984;28;20216;-61
2022/01/11 04:19:59;;;;;;;93.07;40.07;;;-1.50;99.90;;;;;;5053104;28;20768;-61
2022/01/11 04:22:24;;;;;;;97.37;43.70;;;-1.60;99.90;;;;;;5061255;28;20621;-61
2022/01/11 04:24:50;;;;;;;90.47;38.67;;;-1.60;99.90;;;;;;5049289;28;20187;-62
2022/01/11 04:27:15;;;;;;;82.57;38.57;;;-1.50;99.90;;;;;;5058392;28;20213;-62
2022/01/11 04:29:41;;;;;;;87.03;39.97;;;-1.50;99.90;;;;;;5054140;28;20284;-61
2022/01/11 04:32:07;;;;;;;90.63;38.30;;;-1.50;99.90;;;;;;5048791;28;20196;-61
2022/01/11 04:34:32;;;;;;;90.90;41.47;;;-1.50;99.90;;;;;;5054527;28;20253;-61
2022/01/11 04:36:58;;;;;;;84.30;40.67;;;-1.50;99.90;;;;;;5060735;28;20594;-62
2022/01/11 04:39:23;;;;;;;93.23;42.40;;;-1.50;99.90;;;;;;5057609;28;20584;-61
2022/01/11 04:41:50;;;;;;;88.07;39.80;;;-1.40;99.90;;;;;;5056419;28;20297;-62
2022/01/11 04:44:15;;;;;;;84.20;40.33;;;-1.40;99.90;;;;;;5054933;28;20475;-62
2022/01/11 04:46:41;;;;;;;79.03;36.43;;;-1.30;99.90;;;;;;5064679;28;20280;-62
2022/01/11 04:49:07;;;;;;;82.37;36.83;;;-1.20;99.90;;;;;;5046915;28;20700;-62
2022/01/11 04:51:34;;;;;;;78.10;36.30;;;-1.20;99.90;;;;;;5064708;28;20278;-62
2022/01/11 04:54:00;;;;;;;85.50;37.80;;;-1.20;99.90;;;;;;5044658;28;20745;-62
2022/01/11 04:56:26;;;;;;;85.13;40.00;;;-1.20;99.90;;;;;;5064723;28;20354;-62
2022/01/11 04:58:51;;;;;;;88.67;38.33;;;-1.10;99.90;;;;;;5055185;28;20204;-62
2022/01/11 05:01:17;;;;;;;79.90;36.33;;;-1.20;99.90;;;;;;5063927;28;20936;-63
2022/01/11 05:03:43;;;;;;;77.40;37.07;;;-1.20;99.90;;;;;;5056089;28;20222;-63
2022/01/11 05:06:09;;;;;;;91.90;39.03;;;-1.20;99.90;;;;;;5059128;28;20610;-62
2022/01/11 05:08:34;;;;;;;81.13;37.27;;;-1.20;99.90;;;;;;5048108;28;20207;-62
2022/01/11 05:11:00;;;;;;;75.80;37.37;;;-1.20;99.90;;;;;;5064229;28;20437;-62
2022/01/11 05:13:26;;;;;;;79.33;37.37;;;-1.20;99.90;;;;;;5062966;28;20210;-62
2022/01/11 05:15:51;;;;;;;82.73;37.67;;;-1.20;99.90;;;;;;5064343;28;20191;-62
2022/01/11 05:18:17;;;;;;;82.17;36.67;;;-1.20;99.90;;;;;;5053260;28;20203;-62
2022/01/11 05:20:45;;;;;;;80.40;34.37;;;-1.10;99.90;;;;;;5064137;28;20672;-63
2022/01/11 05:23:10;;;;;;;77.20;35.83;;;-1.10;99.90;;;;;;5051088;28;20207;-63
2022/01/11 05:25:36;;;;;;;76.67;34.93;;;-1.10;99.90;;;;;;5063856;28;20191;-62
2022/01/11 05:28:03;;;;;;;78.47;34.80;;;-1.10;99.90;;;;;;5056991;28;20208;-63
2022/01/11 05:30:29;;;;;;;82.10;38.27;;;-1.20;99.90;;;;;;5063619;28;20306;-62
2022/01/11 05:32:55;;;;;;;79.90;36.03;;;-1.20;99.90;;;;;;5062471;28;20201;-61
2022/01/11 05:35:23;;;;;;;78.33;35.30;;;-1.20;99.90;;;;;;5063807;28;20262;-62
2022/01/11 05:37:49;;;;;;;78.37;36.50;;;-1.30;99.90;;;;;;5062274;28;20222;-62
2022/01/11 05:40:16;;;;;;;79.83;37.70;;;-1.30;99.90;;;;;;5064351;28;20196;-61
2022/01/11 05:42:42;;;;;;;86.67;38.23;;;-1.30;99.90;;;;;;5055973;28;20318;-61
2022/01/11 05:45:10;;;;;;;82.37;35.07;;;-1.30;99.90;;;;;;5064123;28;20198;-62
2022/01/11 05:47:36;;;;;;;82.77;37.50;;;-1.30;99.90;;;;;;5065483;28;20196;-62
2022/01/11 05:50:04;;;;;;;78.57;36.77;;;-1.20;99.90;;;;;;5051099;28;20220;-62
2022/01/11 05:52:30;;;;;;;71.03;31.83;;;-1.20;99.90;;;;;;5065799;28;20227;-62
2022/01/11 05:54:55;;;;;;;84.40;36.90;;;-1.20;99.90;;;;;;5055716;28;20981;-62
2022/01/11 05:57:21;;;;;;;76.60;32.43;;;-1.20;99.90;;;;;;5066086;28;20271;-62
2022/01/11 05:59:46;;;;;;;78.27;34.97;;;-1.30;99.90;;;;;;5051915;28;20191;-62
2022/01/11 06:02:13;;;;;;;83.10;35.80;;;-1.30;99.90;;;;;;5058190;28;20254;-62
2022/01/11 06:04:38;;;;;;;78.53;34.37;;;-1.30;99.90;;;;;;5053022;28;20197;-63
2022/01/11 06:07:06;;;;;;;90.90;38.33;;;-1.30;99.90;;;;;;5058203;28;20841;-63
2022/01/11 06:09:32;;;;;;;82.30;36.07;;;-1.20;99.90;;;;;;5067536;28;20722;-63
2022/01/11 06:11:58;;;;;;;82.57;38.00;;;-1.20;99.90;;;;;;5063232;28;20194;-63
2022/01/11 06:14:23;;;;;;;77.63;35.43;;;-1.10;99.90;;;;;;5057842;28;20242;-64
2022/01/11 06:16:49;;;;;;;71.97;33.40;;;-1.10;99.90;;;;;;5063940;28;20231;-63
2022/01/11 06:19:15;;;;;;;68.10;31.20;;;-1.10;99.90;;;;;;5058229;28;20187;-63
2022/01/11 06:21:41;;;;;;;67.30;32.57;;;-1.10;99.90;;;;;;5060866;28;20183;-63
2022/01/11 06:24:07;;;;;;;63.47;32.73;;;-1.10;99.90;;;;;;5065775;28;20196;-63
2022/01/11 06:26:33;;;;;;;71.63;33.43;;;-1.10;99.90;;;;;;5057748;28;20228;-63
2022/01/11 06:29:01;;;;;;;63.57;31.13;;;-1.10;99.90;;;;;;5055982;28;20571;-63
2022/01/11 06:31:27;;;;;;;74.17;33.17;;;-1.00;99.90;;;;;;5067320;28;20648;-63
2022/01/11 06:33:52;;;;;;;76.23;34.97;;;-1.10;99.90;;;;;;5055756;28;20210;-64
2022/01/11 06:36:19;;;;;;;74.20;33.63;;;-1.10;99.90;;;;;;5066843;28;20304;-64
2022/01/11 06:38:44;;;;;;;64.20;30.67;;;-1.10;99.90;;;;;;5049875;28;20248;-63
2022/01/11 06:41:12;;;;;;;66.67;32.43;;;-1.00;99.90;;;;;;5060688;28;20224;-65
2022/01/11 06:43:38;;;;;;;76.13;31.57;;;-1.00;99.90;;;;;;5055071;28;20202;-62
2022/01/11 06:46:05;;;;;;;60.63;31.63;;;-1.00;99.90;;;;;;5064590;28;20981;-64
2022/01/11 06:48:31;;;;;;;69.23;31.87;;;-1.10;99.90;;;;;;5055273;28;20210;-62
2022/01/11 06:50:56;;;;;;;70.80;32.27;;;-1.10;99.90;;;;;;5065365;28;20208;-63
2022/01/11 06:53:22;;;;;;;64.70;34.67;;;-1.10;99.90;;;;;;5054554;28;20670;-62
2022/01/11 06:55:49;;;;;;;62.63;33.07;;;-1.10;99.90;;;;;;5062849;28;20184;-62
2022/01/11 06:58:16;;;;;;;64.50;29.67;;;-1.10;99.90;;;;;;5051820;28;20208;-61
2022/01/11 07:00:42;;;;;;;69.13;31.20;;;-1.20;99.90;;;;;;5058964;28;20234;-62
2022/01/11 07:03:07;;;;;;;69.00;32.47;;;-1.20;99.90;;;;;;5058642;28;20231;-62
2022/01/11 07:05:33;;;;;;;69.10;31.10;;;-1.30;99.90;;;;;;5061091;28;20220;-62
2022/01/11 07:07:58;;;;;;;66.83;31.27;;;-1.30;99.90;;;;;;5054249;28;20638;-62
2022/01/11 07:10:24;;;;;;;54.10;26.80;;;-1.20;99.90;;;;;;5066570;28;20213;-61
2022/01/11 07:12:49;;;;;;;62.07;30.87;;;-1.20;99.90;;;;;;5055466;28;20616;-61
2022/01/11 07:15:15;;;;;;;61.13;28.63;;;-1.20;99.90;;;;;;5066010;28;20209;-61
2022/01/11 07:17:42;;;;;;;61.63;29.13;;;-1.20;99.90;;;;;;5056128;28;20232;-61
2022/01/11 07:20:08;;;;;;;68.10;29.90;;;-1.20;99.90;;;;;;5065482;28;20211;-61
2022/01/11 07:22:35;;;;;;;64.33;29.60;;;-1.20;99.90;;;;;;5062746;28;20195;-61
2022/01/11 07:25:00;;;;;;;64.40;30.23;;;-1.20;99.90;;;;;;5051524;28;20222;-61
2022/01/11 07:27:26;;;;;;;58.10;27.80;;;-1.20;99.90;;;;;;5064141;28;20228;-61
2022/01/11 07:29:51;;;;;;;56.70;27.77;;;-1.30;99.90;;;;;;5049700;28;20228;-61
2022/01/11 07:32:17;;;;;;;57.80;28.13;;;-1.20;99.90;;;;;;5059261;28;20195;-61
2022/01/11 07:34:43;;;;;;;55.57;30.17;;;-1.10;99.90;;;;;;5060995;28;20184;-61
2022/01/11 07:37:09;;;;;;;59.73;29.07;;;-1.10;99.90;;;;;;5060686;28;20210;-61
2022/01/11 07:39:34;;;;;;;64.57;31.63;;;-1.20;99.90;;;;;;5051829;28;20186;-61
2022/01/11 07:42:00;;;;;;;65.63;31.17;;;-1.10;99.90;;;;;;5064123;28;20204;-61
2022/01/11 07:44:25;;;;;;;55.47;27.90;;;-1.00;99.90;;;;;;5054133;28;20546;-61
2022/01/11 07:46:52;;;;;;;59.17;30.97;;;-1.00;99.90;;;;;;5062544;28;20545;-61
2022/01/11 07:49:18;;;;;;;63.13;27.43;;;-1.00;99.90;;;;;;5053576;28;20212;-61
2022/01/11 07:51:44;;;;;;;56.17;28.27;;;-0.90;99.90;;;;;;5063364;28;20525;-61
2022/01/11 07:54:10;;;;;;;52.80;26.60;;;-1.10;99.90;;;;;;5059362;28;20191;-62
2022/01/11 07:56:35;;;;;;;51.33;26.70;;;-1.10;99.90;;;;;;5065487;28;20278;-62
2022/01/11 07:59:01;;;;;;;58.53;26.60;;;-1.20;99.90;;;;;;5054123;28;20197;-62
2022/01/11 08:01:26;;;;;;;56.03;25.87;;;-1.30;99.90;;;;;;5064970;28;20227;-61
2022/01/11 08:03:52;;;;;;;50.73;26.00;;;-1.20;99.90;;;;;;5059117;28;20196;-61
2022/01/11 08:06:18;;;;;;;51.33;26.97;;;-1.20;99.90;;;;;;5064562;28;20196;-61
2022/01/11 08:08:43;;;;;;;50.83;26.90;;;-1.20;99.90;;;;;;5057640;28;20318;-62
2022/01/11 08:11:10;;;;;;;57.73;26.80;;;-1.30;99.90;;;;;;5055221;28;20222;-60
2022/01/11 08:13:36;;;;;;;58.87;28.63;;;-1.20;99.90;;;;;;5053507;28;20198;-61
2022/01/11 08:16:02;;;;;;;56.87;26.47;;;-1.20;99.90;;;;;;5064478;28;20255;-61
2022/01/11 08:18:31;;;;;;;54.07;27.83;;;-1.30;99.90;;;;;;5057934;28;20207;-60
2022/01/11 08:20:56;;;;;;;49.70;27.67;;;-1.40;99.90;;;;;;5060211;28;20196;-61
2022/01/11 08:23:22;;;;;;;48.87;26.83;;;-1.30;99.90;;;;;;5049155;28;20195;-61
2022/01/11 08:25:47;;;;;;;53.47;27.43;;;-1.20;99.90;;;;;;5064526;28;20219;-61
2022/01/11 08:28:13;;;;;;;55.40;27.83;;;-1.10;99.90;;;;;;5057590;28;20603;-61
2022/01/11 08:30:42;;;;;;;49.47;26.80;;;-1.10;99.90;;;;;;5062800;28;20218;-61
2022/01/11 08:33:09;;;;;;;53.03;26.93;;;-1.00;99.90;;;;;;5054345;28;20258;-62
2022/01/11 08:35:35;;;;;;;55.53;26.73;;;-1.00;99.90;;;;;;5064645;28;20226;-62
2022/01/11 08:38:01;;;;;;;52.00;28.47;;;-0.90;99.90;;;;;;5062698;28;20723;-63
2022/01/11 08:40:27;;;;;;;53.33;25.90;;;-0.90;99.90;;;;;;5065252;28;20203;-61
2022/01/11 08:42:53;;;;;;;49.60;26.03;;;-1.00;99.90;;;;;;5062942;28;20207;-62
2022/01/11 08:45:19;;;;;;;55.00;30.10;;;-1.10;99.90;;;;;;5064924;28;20208;-62
2022/01/11 08:47:45;;;;;;;50.47;25.20;;;-1.10;99.90;;;;;;5054718;28;20286;-62
2022/01/11 08:50:12;;;;;;;52.67;25.93;;;-1.00;99.90;;;;;;5065694;28;20214;-62
2022/01/11 08:52:39;;;;;;;47.67;26.17;;;-1.10;99.90;;;;;;5057613;28;20199;-61
2022/01/11 08:55:07;;;;;;;59.93;28.67;;;-1.10;99.90;;;;;;5061711;28;20175;-62
2022/01/11 08:57:33;;;;;;;51.27;27.30;;;-1.10;99.90;;;;;;5055561;28;20612;-62
2022/01/11 08:59:58;;;;;;;49.83;25.30;;;-1.10;99.90;;;;;;5061829;28;20218;-62
2022/01/11 09:02:24;;;;;;;53.70;25.10;;;-1.10;99.90;;;;;;5062199;28;20235;-62
2022/01/11 09:04:52;;;;;;;53.63;26.77;;;-1.00;99.90;;;;;;5053218;28;20650;-61
2022/01/11 09:07:18;;;;;;;49.73;24.83;;;-1.00;99.90;;;;;;5053435;28;20279;-64
2022/01/11 09:09:43;;;;;;;50.73;23.90;;;-0.90;99.90;;;;;;5053356;28;20282;-63
2022/01/11 09:12:12;;;;;;;40.90;21.53;;;-0.90;99.90;;;;;;5051170;28;20235;-62
2022/01/11 09:14:39;;;;;;;43.23;23.37;;;-0.90;99.90;;;;;;5053641;28;20207;-62
2022/01/11 09:17:05;;;;;;;49.67;23.90;;;-0.90;99.90;;;;;;5053511;28;20221;-63
2022/01/11 09:19:31;;;;;;;44.03;22.73;;;-1.00;99.90;;;;;;5058925;28;20183;-62
2022/01/11 09:21:57;;;;;;;48.87;24.77;;;-1.00;99.90;;;;;;5053864;28;20194;-62
2022/01/11 09:24:29;;;;;;;49.83;24.30;;;-0.90;99.90;;;;;;5054720;28;20233;-62
2022/01/11 09:26:58;;;;;;;48.90;24.77;;;-0.90;99.90;;;;;;5055247;28;20501;-61
2022/01/11 09:29:25;;;;;;;46.47;26.40;;;-0.90;99.90;;;;;;5057289;28;20194;-63
2022/01/11 09:31:51;;;;;;;48.30;25.67;;;-0.90;99.90;;;;;;5059277;28;20250;-60
2022/01/11 09:34:16;;;;;;;49.10;25.13;;;-0.80;99.90;;;;;;5056848;28;20185;-62
2022/01/11 09:36:42;;;;;;;48.80;24.70;;;-0.70;99.90;;;;;;5059340;28;20218;-62
2022/01/11 09:39:08;;;;;;;47.27;25.67;;;-0.60;99.90;;;;;;5055218;28;20670;-62
2022/01/11 09:41:35;;;;;;;45.03;25.80;;;-0.60;99.90;;;;;;5059003;28;20650;-63
2022/01/11 09:44:00;;;;;;;44.83;23.53;;;-0.70;99.90;;;;;;5057107;28;20708;-61
2022/01/11 09:46:27;;;;;;;39.03;21.33;;;-0.60;99.90;;;;;;5060734;28;20197;-61
2022/01/11 09:48:52;;;;;;;43.33;23.67;;;-0.50;99.90;;;;;;5057527;28;20204;-61
2022/01/11 09:51:18;;;;;;;45.67;24.33;;;-0.50;99.90;;;;;;5058347;28;20748;-62
2022/01/11 09:53:43;;;;;;;46.70;23.57;;;-0.40;99.90;;;;;;5054668;28;20208;-61
2022/01/11 09:56:09;;;;;;;46.97;24.40;;;-0.50;99.90;;;;;;5068103;28;20654;-61
2022/01/11 09:58:35;;;;;;;40.17;25.20;;;-0.50;99.90;;;;;;5060362;28;20216;-61
2022/01/11 10:01:01;;;;;;;40.93;24.10;;;-0.50;99.90;;;;;;5055893;28;20233;-62
2022/01/11 10:03:27;;;;;;;44.07;24.33;;;-0.50;99.90;;;;;;5062130;28;20211;-61
2022/01/11 10:05:52;;;;;;;43.07;22.03;;;-0.50;99.90;;;;;;5057371;28;20194;-62
2022/01/11 10:08:22;;;;;;;45.70;24.40;;;-0.30;99.90;;;;;;5058620;28;20285;-62
2022/01/11 10:10:48;;;;;;;40.23;23.03;;;-0.40;99.90;;;;;;5057759;28;20307;-62
2022/01/11 10:13:46;;;;;;;43.73;23.03;;;-0.40;99.90;;;;;;5054487;28;20363;-61
2022/01/11 10:16:27;;;;;;;47.27;24.40;;;-0.50;99.90;;;;;;5044781;28;20216;-61
2022/01/11 10:18:54;;;;;;;45.10;25.00;;;-0.60;99.90;;;;;;5069645;28;20198;-61
2022/01/11 10:21:50;;;;;;;44.37;24.57;;;-0.60;99.90;;;;;;5061776;28;20549;-62
2022/01/11 10:24:35;;;;;;;45.10;23.53;;;-0.60;99.90;;;;;;5054060;28;20904;-64
2022/01/11 10:27:07;;;;;;;35.97;21.93;;;-0.60;99.90;;;;;;5062424;28;20187;-62
2022/01/11 10:29:36;;;;;;;42.43;23.17;;;-0.50;99.90;;;;;;5054834;28;20251;-63
2022/01/11 10:32:15;;;;;;;46.73;25.47;;;-0.50;99.90;;;;;;5054449;28;20361;-62
2022/01/11 10:34:42;;;;;;;40.43;21.73;;;-0.50;99.90;;;;;;5054956;28;20268;-63
2022/01/11 10:37:08;;;;;;;42.87;24.40;;;-0.40;99.90;;;;;;5058984;28;20202;-62
2022/01/11 10:39:36;;;;;;;37.77;21.50;;;-0.40;99.90;;;;;;5055268;28;20673;-61
2022/01/11 10:42:04;;;;;;;37.47;21.87;;;-0.40;99.90;;;;;;5054067;28;20710;-62
2022/01/11 10:44:44;;;;;;;36.73;22.03;;;-0.30;99.90;;;;;;5059354;28;20195;-62
2022/01/11 10:47:10;;;;;;;36.30;21.73;;;-0.20;99.90;;;;;;5051616;28;20697;-62
2022/01/11 10:49:36;;;;;;;41.67;22.93;;;-0.30;99.90;;;;;;5065868;28;20247;-62
2022/01/11 10:52:15;;;;;;;41.93;22.33;;;-0.30;99.90;;;;;;5065080;28;20189;-62
2022/01/11 10:54:44;;;;;;;35.93;21.17;;;-0.40;99.90;;;;;;5058844;28;20223;-62
2022/01/11 10:57:26;;;;;;;39.37;22.43;;;-0.40;99.90;;;;;;5059822;28;20197;-61
2022/01/11 11:00:13;;;;;;;38.30;22.93;;;-0.40;99.90;;;;;;5063162;28;20281;-62
2022/01/11 11:02:40;;;;;;;44.87;24.13;;;-0.40;99.90;;;;;;5054581;28;20200;-62
2022/01/11 11:05:14;;;;;;;40.50;24.47;;;-0.50;99.90;;;;;;5064602;28;20203;-62
2022/01/11 11:07:41;;;;;;;45.87;24.97;;;-0.50;99.90;;;;;;5065085;28;20206;-62
2022/01/11 11:10:06;;;;;;;53.17;25.03;;;-0.40;99.90;;;;;;5060991;28;20215;-63
2022/01/11 11:12:32;;;;;;;40.90;23.13;;;-0.30;99.90;;;;;;5062960;28;20225;-62
2022/01/11 11:14:59;;;;;;;42.33;22.60;;;-0.30;99.90;;;;;;5065867;28;20203;-63
2022/01/11 11:17:25;;;;;;;41.23;22.67;;;-0.30;99.90;;;;;;5056515;28;20562;-62
2022/01/11 11:20:08;;;;;;;45.20;23.70;;;-0.30;99.90;;;;;;5065670;28;20282;-63
2022/01/11 11:22:34;;;;;;;41.97;22.93;;;-0.30;99.90;;;;;;5055178;28;20211;-62
2022/01/11 11:25:01;;;;;;;40.67;22.63;;;-0.20;99.90;;;;;;5065736;28;20198;-62
2022/01/11 11:27:28;;;;;;;38.13;21.73;;;-0.20;99.90;;;;;;5056084;28;20279;-62
2022/01/11 11:29:54;;;;;;;35.20;21.50;;;-0.10;99.90;;;;;;5065682;28;20226;-61
2022/01/11 11:32:20;;;;;;;40.37;23.03;;;-0.20;99.90;;;;;;5056572;28;20195;-61
2022/01/11 11:34:50;;;;;;;38.23;21.87;;;-0.30;99.90;;;;;;5054590;28;20192;-62
2022/01/11 11:37:35;;;;;;;43.83;22.67;;;-0.20;99.90;;;;;;5063183;28;20199;-62
2022/01/11 11:40:15;;;;;;;39.17;23.70;;;-0.20;99.90;;;;;;5058908;28;20220;-62
2022/01/11 11:42:41;;;;;;;39.07;22.37;;;-0.20;99.90;;;;;;5063005;28;20204;-63
2022/01/11 11:45:22;;;;;;;41.33;22.10;;;-0.10;99.90;;;;;;5061991;28;20197;-62
2022/01/11 11:47:48;;;;;;;39.77;21.70;;;-0.10;99.90;;;;;;5059622;28;20626;-63
2022/01/11 11:50:17;;;;;;;38.03;20.57;;;0.00;99.90;;;;;;5062402;28;20208;-63
2022/01/11 11:52:54;;;;;;;37.80;22.47;;;0.00;99.90;;;;;;5053341;28;20203;-62
2022/01/11 11:55:29;;;;;;;38.17;20.90;;;0.00;99.90;;;;;;5063197;28;20191;-62
2022/01/11 11:58:01;;;;;;;33.63;20.63;;;0.00;99.90;;;;;;5052252;28;20209;-61
2022/01/11 12:00:30;;;;;;;33.77;21.13;;;0.00;99.90;;;;;;5055041;28;20203;-61
2022/01/11 12:03:01;;;;;;;46.80;23.30;;;0.00;99.90;;;;;;5052128;28;20230;-62
2022/01/11 12:05:42;;;;;;;39.97;22.70;;;0.00;99.90;;;;;;5066706;28;20203;-62
2022/01/11 12:08:36;;;;;;;42.80;22.50;;;-0.10;99.90;;;;;;5050399;28;20319;-62
2022/01/11 12:11:15;;;;;;;42.17;21.53;;;-0.10;99.90;;;;;;5048305;28;20213;-62
2022/01/11 12:13:52;;;;;;;43.97;24.60;;;-0.10;99.90;;;;;;5065590;28;20191;-61
2022/01/11 12:16:24;;;;;;;36.77;22.23;;;0.00;99.90;;;;;;5057720;28;20775;-61
2022/01/11 12:18:55;;;;;;;43.07;24.10;;;0.10;99.90;;;;;;5065660;28;20384;-62
2022/01/11 12:21:21;;;;;;;43.97;23.07;;;0.20;99.90;;;;;;5056807;28;20244;-63
2022/01/11 12:23:47;;;;;;;50.33;23.40;;;0.20;99.90;;;;;;5065217;28;20191;-63
2022/01/11 12:26:20;;;;;;;42.63;24.47;;;0.30;99.90;;;;;;5049036;28;20227;-62
2022/01/11 12:29:05;;;;;;;41.80;23.73;;;0.30;99.90;;;;;;5064836;28;20192;-63
2022/01/11 12:31:32;;;;;;;41.77;23.33;;;0.30;99.90;;;;;;5046542;28;20192;-62